Список аэропортов
Фактическая погода:

23 февраля, 18:00
Температура: +1°C (-1.3*)
Ветер: восточный 2 м/с
Давление: *781 мм
Без существ. явл.
Время (МСК)Темп. СВетерВлажностьДавлениеОблачностьОсадки
15:00-0В, 1 м/с38%1044 гПас прояснениями
16:000СВ, 1 м/с37%1043 гПас прояснениями
17:000СВ, 2 м/с37%1044 гПас прояснениями
18:000СВ, 2 м/с38%1044 гПамалооблачно
19:00-0СВ, 1 м/с39%1044 гПамалооблачно
20:00-1СВ, 1 м/с40%1044 гПамалооблачно
21:00-2В, 1 м/с43%1044 гПаясно
22:00-2ЮВ, 1 м/с44%1044 гПаясно
23:00-2Ю, 1 м/с46%1044 гПаясно
24 февраля
00:00-2ЮЗ, 1 м/с46%1044 гПаясно
01:00-3ЮЗ, 1 м/с47%1044 гПаясно
02:00-3ЮЗ, 1 м/с48%1044 гПас прояснениями
03:00-2Ю, 2 м/с48%1043 гПаясно
04:00-3ЮЗ, 2 м/с50%1043 гПаясно
05:00-3ЮЗ, 2 м/с52%1043 гПаясно
06:00-3ЮЗ, 2 м/с52%1043 гПаясно
07:00-3ЮЗ, 2 м/с52%1043 гПаясно
08:00-3ЮЗ, 1 м/с53%1043 гПаясно
09:00-3ЮЗ, 2 м/с54%1043 гПаясно
10:00-2ЮЗ, 2 м/с50%1043 гПас прояснениями
11:00-1ЮЗ, 2 м/с49%1042 гПаоблачно
12:00-0З, 2 м/с48%1042 гПаоблачно
13:00+1З, 2 м/с44%1042 гПаоблачно
14:00+3З, 2 м/с38%1041 гПас прояснениями
15:00+5З, 2 м/с37%1041 гПаясно
16:00+5З, 2 м/с38%1041 гПаясно
17:00+6З, 2 м/с40%1041 гПаясно
18:00+5З, 2 м/с42%1041 гПаясно
19:00+3З, 2 м/с53%1041 гПамалооблачно
20:00+2З, 2 м/с60%1041 гПас прояснениями
21:00+1З, 3 м/с63%1042 гПаясно
22:00+1З, 3 м/с63%1041 гПамалооблачно
23:00+1ЮЗ, 3 м/с62%1041 гПаясно
25 февраля
00:00+1ЮЗ, 3 м/с62%1041 гПаясно
01:00+1З, 3 м/с64%1041 гПаясно
02:00+1З, 3 м/с64%1042 гПаясно
03:00+1ЮЗ, 2 м/с62%1042 гПаоблачно
04:000ЮЗ, 3 м/с61%1041 гПаоблачно
05:000ЮЗ, 3 м/с62%1041 гПаоблачно
06:000З, 2 м/с63%1041 гПаоблачно
07:000ЮЗ, 2 м/с65%1041 гПамалооблачно
08:000ЮЗ, 2 м/с66%1041 гПамалооблачно
09:000ЮЗ, 3 м/с66%1041 гПаясно
10:000ЮЗ, 3 м/с66%1042 гПаясно
11:00+2ЮЗ, 3 м/с59%1041 гПаоблачно
12:00+6ЮЗ, 3 м/с50%1041 гПаясно
13:00+8З, 1 м/с49%1040 гПамалооблачно
14:00+10Штиль 47%1040 гПас прояснениями
15:00+11З, 1 м/с47%1039 гПаясно